createdAt,value
2022-10-06T00:01:05.226Z,98885.66
2022-10-06T00:03:31.798Z,98886.24
2022-10-06T00:06:02.141Z,98884.84
2022-10-06T00:08:31.089Z,98892.23
2022-10-06T00:10:57.796Z,98892.88
2022-10-06T00:13:24.817Z,98893.08
2022-10-06T00:15:51.669Z,98896.01
2022-10-06T00:18:18.278Z,98897.78
2022-10-06T00:20:44.735Z,98899.77
2022-10-06T00:23:11.527Z,98902.88
2022-10-06T00:25:38.823Z,98903.23
2022-10-06T00:28:05.676Z,98902.56
2022-10-06T00:30:32.406Z,98905.89
2022-10-06T00:33:00.879Z,98903.43
2022-10-06T00:35:33.842Z,98905.49
2022-10-06T00:38:01.110Z,98910.08
2022-10-06T00:40:27.661Z,98910.05
2022-10-06T00:43:01.332Z,98912.99
2022-10-06T00:45:39.664Z,98915.45
2022-10-06T00:48:10.773Z,98915.98
2022-10-06T00:50:37.929Z,98920.65
2022-10-06T00:53:04.451Z,98922.09
2022-10-06T00:55:31.220Z,98914.75
2022-10-06T00:57:57.852Z,98917.96
2022-10-06T01:00:24.358Z,98915.51
2022-10-06T01:02:57.504Z,98920.32
2022-10-06T01:05:27.573Z,98918.70
2022-10-06T01:07:54.128Z,98919.44
2022-10-06T01:10:21.034Z,98918.30
2022-10-06T01:12:48.234Z,98915.95
2022-10-06T01:15:15.675Z,98915.94
2022-10-06T01:17:44.500Z,98915.92
2022-10-06T01:20:12.991Z,98916.28
2022-10-06T01:22:43.464Z,98916.80
2022-10-06T01:25:11.674Z,98919.15
2022-10-06T01:27:38.966Z,98917.39
2022-10-06T01:30:09.656Z,98915.30
2022-10-06T01:32:37.781Z,98923.85
2022-10-06T01:35:05.586Z,98917.52
2022-10-06T01:37:32.106Z,98918.62
2022-10-06T01:39:59.074Z,98918.80
2022-10-06T01:42:25.779Z,98917.05
2022-10-06T01:44:52.510Z,98916.36
2022-10-06T01:47:19.129Z,98916.54
2022-10-06T01:49:45.587Z,98916.95
2022-10-06T01:52:12.474Z,98909.81
2022-10-06T01:54:39.247Z,98913.55
2022-10-06T01:57:09.098Z,98919.29
2022-10-06T01:59:35.674Z,98920.06
2022-10-06T02:02:02.457Z,98921.52
2022-10-06T02:04:29.063Z,98919.84
2022-10-06T02:06:55.715Z,98923.86
2022-10-06T02:09:23.559Z,98925.85
2022-10-06T02:11:50.182Z,98927.02
2022-10-06T02:14:18.140Z,98925.12
2022-10-06T02:16:45.370Z,98929.63
2022-10-06T02:19:11.874Z,98931.67
2022-10-06T02:21:38.957Z,98932.20
2022-10-06T02:24:05.789Z,98929.26
2022-10-06T02:26:32.547Z,98929.85
2022-10-06T02:28:59.277Z,98933.02
2022-10-06T02:31:26.086Z,98936.33
2022-10-06T02:33:52.852Z,98930.81
2022-10-06T02:36:19.581Z,98928.20
2022-10-06T02:38:46.353Z,98933.42
2022-10-06T02:41:12.806Z,98934.14
2022-10-06T02:43:39.606Z,98935.06
2022-10-06T02:46:08.442Z,98933.77
2022-10-06T02:48:35.077Z,98933.06
2022-10-06T02:51:09.771Z,98932.95
2022-10-06T02:53:36.547Z,98932.92
2022-10-06T02:56:05.497Z,98938.48
2022-10-06T02:58:32.666Z,98936.83
2022-10-06T03:03:57.154Z,98941.84
2022-10-06T03:06:25.293Z,98939.15
2022-10-06T03:08:56.417Z,98939.70
2022-10-06T03:11:30.232Z,98941.15
2022-10-06T03:13:57.210Z,98943.63
2022-10-06T03:16:25.494Z,98943.04
2022-10-06T03:18:54.196Z,98945.45
2022-10-06T03:21:22.527Z,98947.77
2022-10-06T03:23:49.834Z,98946.42
2022-10-06T03:26:17.979Z,98944.63
2022-10-06T03:28:44.999Z,98941.91
2022-10-06T03:31:11.742Z,98946.13
2022-10-06T03:33:38.566Z,98947.00
2022-10-06T03:36:09.699Z,98948.51
2022-10-06T03:38:36.461Z,98950.40
2022-10-06T03:41:06.754Z,98951.80
2022-10-06T03:43:33.882Z,98951.34
2022-10-06T03:46:03.524Z,98948.16
2022-10-06T03:48:31.838Z,98949.20
2022-10-06T03:51:19.505Z,98952.52
2022-10-06T03:53:47.563Z,98957.48
2022-10-06T03:56:16.546Z,98955.68
2022-10-06T03:58:44.607Z,98953.58
2022-10-06T04:01:14.332Z,98955.20
2022-10-06T04:03:40.809Z,98959.24
2022-10-06T04:06:09.737Z,98959.83
2022-10-06T04:08:36.953Z,98960.86
2022-10-06T04:11:16.306Z,98961.50
2022-10-06T04:13:43.574Z,98963.24
2022-10-06T04:16:18.369Z,98966.38
2022-10-06T04:18:46.273Z,98969.73
2022-10-06T04:21:13.084Z,98971.35
2022-10-06T04:23:39.638Z,98975.17
2022-10-06T04:26:09.941Z,98978.52
2022-10-06T04:28:38.247Z,98980.04
2022-10-06T04:31:07.112Z,98974.98
2022-10-06T04:33:34.558Z,98976.58
2022-10-06T04:36:03.226Z,98978.70
2022-10-06T04:38:32.195Z,98983.20
2022-10-06T04:41:13.025Z,98981.09
2022-10-06T04:43:39.562Z,98982.48
2022-10-06T04:46:23.973Z,98985.95
2022-10-06T04:48:53.925Z,98988.25
2022-10-06T04:51:21.443Z,98988.47
2022-10-06T04:53:48.385Z,98994.64
2022-10-06T04:56:29.789Z,98994.23
2022-10-06T04:58:56.456Z,98997.69
2022-10-06T05:01:24.706Z,99002.68
2022-10-06T05:03:53.419Z,98999.59
2022-10-06T05:06:27.766Z,98999.30
2022-10-06T05:08:56.171Z,99000.32
2022-10-06T05:11:25.826Z,99001.45
2022-10-06T05:13:54.960Z,99001.98
2022-10-06T05:16:21.867Z,99002.48
2022-10-06T05:18:48.386Z,99005.96
2022-10-06T05:21:19.640Z,99000.29
2022-10-06T05:23:46.400Z,98999.08
2022-10-06T05:26:14.509Z,99001.77
2022-10-06T05:28:41.267Z,99001.37
2022-10-06T05:31:11.670Z,99005.98
2022-10-06T05:33:38.344Z,99006.12
2022-10-06T05:36:06.502Z,99004.11
2022-10-06T05:38:33.550Z,99006.83
2022-10-06T05:41:13.679Z,99005.25
2022-10-06T05:43:40.664Z,99013.77
2022-10-06T05:46:09.232Z,99013.83
2022-10-06T05:48:35.985Z,99022.52
2022-10-06T05:51:03.890Z,99025.06
2022-10-06T05:53:30.899Z,99023.22
2022-10-06T05:56:05.563Z,99036.14
2022-10-06T05:58:32.904Z,99045.21
2022-10-06T06:01:29.771Z,99050.52
2022-10-06T06:04:00.283Z,99052.53
2022-10-06T06:06:34.596Z,99051.95
2022-10-06T06:09:08.953Z,99055.20
2022-10-06T06:11:37.473Z,99056.02
2022-10-06T06:14:08.757Z,99055.23
2022-10-06T06:16:37.110Z,99054.26
2022-10-06T06:19:04.037Z,99060.93
2022-10-06T06:21:30.663Z,99067.21
2022-10-06T06:23:57.288Z,99076.21
2022-10-06T06:26:28.882Z,99079.23
2022-10-06T06:28:57.155Z,99078.03
2022-10-06T06:31:27.104Z,99081.20
2022-10-06T06:33:54.987Z,99081.85
2022-10-06T06:36:25.939Z,99087.37
2022-10-06T06:38:56.476Z,99092.60
2022-10-06T06:41:24.363Z,99090.85
2022-10-06T06:43:51.209Z,99087.85
2022-10-06T06:46:18.793Z,99093.36
2022-10-06T06:48:47.225Z,99101.21
2022-10-06T06:51:13.877Z,99110.52
2022-10-06T06:53:40.941Z,99115.05
2022-10-06T06:56:08.599Z,99115.89
2022-10-06T06:58:35.641Z,99119.71
2022-10-06T07:01:11.203Z,99118.98
2022-10-06T07:03:56.479Z,99116.02
2022-10-06T07:06:28.095Z,99116.86
2022-10-06T07:08:55.350Z,99122.76
2022-10-06T07:11:23.503Z,99122.26
2022-10-06T07:13:54.913Z,99126.02
2022-10-06T07:16:40.781Z,99130.48
2022-10-06T07:19:26.232Z,99133.30
2022-10-06T07:22:11.816Z,99130.20
2022-10-06T07:24:57.500Z,99136.69
2022-10-06T07:27:24.263Z,99137.06
2022-10-06T07:29:54.469Z,99140.69
2022-10-06T07:32:22.956Z,99148.49
2022-10-06T07:34:50.141Z,99149.56
2022-10-06T07:37:18.034Z,99146.52
2022-10-06T07:39:45.203Z,99154.09
2022-10-06T07:42:15.231Z,99156.33
2022-10-06T07:44:42.270Z,99159.99
2022-10-06T07:47:09.320Z,99160.16
2022-10-06T07:49:35.939Z,99159.10
2022-10-06T07:52:05.255Z,99162.61
2022-10-06T07:54:32.299Z,99159.65
2022-10-06T07:56:58.763Z,99164.96
2022-10-06T07:59:25.277Z,99166.46
2022-10-06T08:01:53.217Z,99163.98
2022-10-06T08:04:19.737Z,99158.93
2022-10-06T08:06:47.727Z,99161.38
2022-10-06T08:09:14.418Z,99168.39
2022-10-06T08:11:41.035Z,99169.64
2022-10-06T08:14:07.482Z,99172.95
2022-10-06T08:16:37.550Z,99173.77
2022-10-06T08:19:05.228Z,99178.16
2022-10-06T08:21:34.380Z,99183.35
2022-10-06T08:24:02.251Z,99187.26
2022-10-06T08:26:29.253Z,99180.97
2022-10-06T08:29:03.280Z,99189.51
2022-10-06T08:31:30.474Z,99187.54
2022-10-06T08:33:57.313Z,99192.41
2022-10-06T08:36:30.984Z,99195.52
2022-10-06T08:38:58.920Z,99197.83
2022-10-06T08:41:44.899Z,99197.82
2022-10-06T08:44:18.934Z,99203.76
2022-10-06T08:47:00.621Z,99199.64
2022-10-06T08:49:37.113Z,99200.45
2022-10-06T08:52:15.777Z,99200.57
2022-10-06T08:54:49.388Z,99197.82
2022-10-06T08:57:27.211Z,99201.20
2022-10-06T08:59:54.291Z,99202.59
2022-10-06T09:02:39.221Z,99216.05
2022-10-06T09:05:06.624Z,99221.77
2022-10-06T09:07:42.262Z,99225.30
2022-10-06T09:10:49.353Z,99228.47
2022-10-06T09:13:44.438Z,99233.46
2022-10-06T09:16:14.674Z,99239.43
2022-10-06T09:21:36.507Z,99241.07
2022-10-06T09:24:07.230Z,99237.06
2022-10-06T09:26:33.890Z,99238.14
2022-10-06T09:29:00.782Z,99242.36
2022-10-06T09:31:29.092Z,99243.33
2022-10-06T09:34:04.780Z,99246.40
2022-10-06T09:36:32.005Z,99256.20
2022-10-06T09:38:59.466Z,99255.84
2022-10-06T09:41:29.908Z,99253.29
2022-10-06T09:43:58.810Z,99247.87
2022-10-06T09:46:31.590Z,99251.76
2022-10-06T09:49:10.249Z,99249.35
2022-10-06T09:51:38.317Z,99249.67
2022-10-06T09:54:14.330Z,99244.73
2022-10-06T09:56:42.159Z,99240.73
2022-10-06T09:59:22.642Z,99243.05
2022-10-06T10:02:00.099Z,99248.70
2022-10-06T10:04:33.308Z,99246.50
2022-10-06T10:07:26.753Z,99246.74
2022-10-06T10:09:54.001Z,99250.65
2022-10-06T10:12:33.502Z,99253.81
2022-10-06T10:15:23.828Z,99252.02
2022-10-06T10:17:51.484Z,99263.52
2022-10-06T10:20:36.354Z,99263.84
2022-10-06T10:23:31.630Z,99266.23
2022-10-06T10:26:01.738Z,99269.77
2022-10-06T10:28:40.373Z,99263.24
2022-10-06T10:31:20.403Z,99264.50
2022-10-06T10:34:23.136Z,99267.73
2022-10-06T10:36:52.114Z,99268.77
2022-10-06T10:39:27.314Z,99270.61
2022-10-06T10:41:53.856Z,99273.00
2022-10-06T10:44:31.118Z,99274.45
2022-10-06T10:47:06.180Z,99284.29
2022-10-06T10:49:33.004Z,99288.34
2022-10-06T10:52:10.009Z,99287.18
2022-10-06T10:54:44.793Z,99288.47
2022-10-06T10:57:14.008Z,99287.26
2022-10-06T10:59:58.691Z,99291.70
2022-10-06T11:02:25.391Z,99291.39
2022-10-06T11:04:58.227Z,99289.71
2022-10-06T11:07:39.258Z,99292.95
2022-10-06T11:10:23.177Z,99292.64
2022-10-06T11:13:15.003Z,99293.01
2022-10-06T11:15:46.663Z,99299.33
2022-10-06T11:18:35.162Z,99300.87
2022-10-06T11:21:34.656Z,99297.45
2022-10-06T11:24:06.854Z,99301.65
2022-10-06T11:26:41.173Z,99301.20
2022-10-06T11:29:35.246Z,99302.77
2022-10-06T11:32:41.784Z,99301.52
2022-10-06T11:35:19.692Z,99297.34
2022-10-06T11:38:00.314Z,99299.65
2022-10-06T11:41:09.758Z,99295.59
2022-10-06T11:43:46.845Z,99303.36
2022-10-06T11:46:13.330Z,99296.87
2022-10-06T11:48:40.580Z,99296.17
2022-10-06T11:51:25.432Z,99298.02
2022-10-06T11:53:52.435Z,99295.61
2022-10-06T11:56:19.363Z,99299.17
2022-10-06T11:58:52.060Z,99301.16
2022-10-06T12:01:30.778Z,99297.83
2022-10-06T12:04:09.667Z,99297.55
2022-10-06T12:06:42.501Z,99306.16
2022-10-06T12:09:28.775Z,99308.48
2022-10-06T12:12:01.758Z,99313.86
2022-10-06T12:17:36.088Z,99313.17
2022-10-06T12:20:21.238Z,99314.34
2022-10-06T12:22:50.858Z,99319.86
2022-10-06T12:25:49.580Z,99316.60
2022-10-06T12:28:35.856Z,99315.41
2022-10-06T12:31:21.396Z,99319.23
2022-10-06T12:33:48.416Z,99322.81
2022-10-06T12:36:28.694Z,99318.43
2022-10-06T12:39:05.183Z,99317.45
2022-10-06T12:41:54.664Z,99320.12
2022-10-06T12:44:23.096Z,99318.59
2022-10-06T12:46:49.691Z,99315.89
2022-10-06T12:50:00.415Z,99315.74
2022-10-06T12:52:34.576Z,99317.61
2022-10-06T12:55:29.068Z,99320.71
2022-10-06T12:57:55.957Z,99317.01
2022-10-06T13:00:39.772Z,99318.19
2022-10-06T13:03:08.992Z,99319.75
2022-10-06T13:05:35.807Z,99320.15
2022-10-06T13:08:03.340Z,99322.59
2022-10-06T13:10:30.137Z,99323.44
2022-10-06T13:12:58.138Z,99322.45
2022-10-06T13:15:33.422Z,99320.95
2022-10-06T13:18:03.739Z,99323.48
2022-10-06T13:20:35.625Z,99327.31
2022-10-06T13:23:17.225Z,99328.27
2022-10-06T13:25:48.281Z,99332.75
2022-10-06T13:28:27.483Z,99331.63
2022-10-06T13:33:36.252Z,99333.34
2022-10-06T13:36:03.051Z,99335.55
2022-10-06T13:38:34.879Z,99339.50
2022-10-06T13:41:05.455Z,99341.56
2022-10-06T13:43:35.074Z,99343.79
2022-10-06T13:46:08.701Z,99346.42
2022-10-06T13:48:35.208Z,99348.64
2022-10-06T13:51:03.519Z,99349.39
2022-10-06T13:53:31.413Z,99350.79
2022-10-06T13:55:59.127Z,99353.89
2022-10-06T13:58:27.696Z,99356.88
2022-10-06T14:00:57.827Z,99359.15
2022-10-06T14:03:29.000Z,99357.82
2022-10-06T14:06:09.321Z,99360.52
2022-10-06T14:08:36.127Z,99361.04
2022-10-06T14:11:04.944Z,99358.23
2022-10-06T14:13:35.029Z,99369.15
2022-10-06T14:16:06.432Z,99371.74
2022-10-06T14:18:36.602Z,99373.84
2022-10-06T14:21:19.519Z,99383.27
2022-10-06T14:23:50.810Z,99390.16
2022-10-06T14:26:19.105Z,99391.45
2022-10-06T14:28:51.941Z,99398.38
2022-10-06T14:31:22.207Z,99399.56
2022-10-06T14:33:51.462Z,99400.21
2022-10-06T14:36:28.940Z,99406.16
2022-10-06T14:38:56.668Z,99408.35
2022-10-06T14:41:55.505Z,99407.75
2022-10-06T14:44:22.170Z,99413.96
2022-10-06T14:46:48.964Z,99415.45
2022-10-06T14:49:16.061Z,99418.86
2022-10-06T14:51:43.403Z,99422.80
2022-10-06T14:54:10.609Z,99427.85
2022-10-06T14:56:39.158Z,99426.17
2022-10-06T14:59:07.060Z,99430.50
2022-10-06T15:01:34.685Z,99430.91
2022-10-06T15:04:03.204Z,99433.52
2022-10-06T15:06:48.212Z,99434.95
2022-10-06T15:09:15.120Z,99436.23
2022-10-06T15:11:41.628Z,99445.53
2022-10-06T15:14:08.709Z,99450.27
2022-10-06T15:16:37.330Z,99454.27
2022-10-06T15:19:05.649Z,99453.30
2022-10-06T15:21:33.239Z,99453.71
2022-10-06T15:24:02.159Z,99461.55
2022-10-06T15:26:47.627Z,99466.32
2022-10-06T15:29:14.775Z,99468.95
2022-10-06T15:31:43.255Z,99471.64
2022-10-06T15:34:12.209Z,99476.19
2022-10-06T15:36:42.679Z,99484.63
2022-10-06T15:39:13.701Z,99489.66
2022-10-06T15:41:41.270Z,99490.25
2022-10-06T15:44:09.161Z,99492.97
2022-10-06T15:46:39.989Z,99490.02
2022-10-06T15:49:11.143Z,99493.53
2022-10-06T15:51:57.279Z,99490.05
2022-10-06T15:54:27.817Z,99497.13
2022-10-06T15:56:59.111Z,99497.23
2022-10-06T15:59:26.182Z,99502.28
2022-10-06T16:01:57.542Z,99508.54
2022-10-06T16:04:47.641Z,99506.11
2022-10-06T16:07:18.438Z,99510.22
2022-10-06T16:09:46.576Z,99509.98
2022-10-06T16:12:16.375Z,99511.76
2022-10-06T16:14:43.236Z,99512.55
2022-10-06T16:17:10.142Z,99515.85
2022-10-06T16:19:37.163Z,99512.54
2022-10-06T16:22:04.596Z,99513.12
2022-10-06T16:24:31.416Z,99515.70
2022-10-06T16:26:59.804Z,99519.11
2022-10-06T16:29:27.131Z,99521.06
2022-10-06T16:31:53.657Z,99523.96
2022-10-06T16:34:20.309Z,99525.04
2022-10-06T16:36:47.151Z,99530.48
2022-10-06T16:39:15.206Z,99529.98
2022-10-06T16:41:41.794Z,99526.55
2022-10-06T16:44:08.585Z,99527.30
2022-10-06T16:46:35.114Z,99531.27
2022-10-06T16:49:02.360Z,99532.76
2022-10-06T16:51:35.960Z,99533.69
2022-10-06T16:54:07.079Z,99539.84
2022-10-06T16:56:40.200Z,99546.39
2022-10-06T16:59:12.023Z,99554.05
2022-10-06T17:01:38.823Z,99563.15
2022-10-06T17:04:16.884Z,99565.70
2022-10-06T17:06:57.053Z,99567.21
2022-10-06T17:09:25.253Z,99570.23
2022-10-06T17:11:56.075Z,99578.21
2022-10-06T17:14:22.912Z,99581.08
2022-10-06T17:16:51.133Z,99582.27
2022-10-06T17:19:18.985Z,99585.36
2022-10-06T17:21:48.101Z,99582.80
2022-10-06T17:24:18.174Z,99583.02
2022-10-06T17:26:46.728Z,99582.38
2022-10-06T17:29:16.065Z,99581.98
2022-10-06T17:31:43.316Z,99583.20
2022-10-06T17:34:12.023Z,99581.58
2022-10-06T17:36:39.491Z,99586.06
2022-10-06T17:39:06.892Z,99588.66
2022-10-06T17:41:35.262Z,99591.18
2022-10-06T17:44:03.923Z,99594.63
2022-10-06T17:46:41.272Z,99593.77
2022-10-06T17:49:09.045Z,99593.48
2022-10-06T17:51:37.278Z,99592.02
2022-10-06T17:54:05.332Z,99590.96
2022-10-06T17:56:35.773Z,99596.15
2022-10-06T17:59:07.591Z,99608.96
2022-10-06T18:01:34.854Z,99605.04
2022-10-06T18:04:03.286Z,99609.77
2022-10-06T18:06:30.913Z,99615.60
2022-10-06T18:09:00.815Z,99616.11
2022-10-06T18:11:35.999Z,99621.92
2022-10-06T18:14:07.662Z,99625.42
2022-10-06T18:16:39.834Z,99625.09
2022-10-06T18:19:11.079Z,99627.27
2022-10-06T18:21:41.163Z,99628.02
2022-10-06T18:24:10.470Z,99631.75
2022-10-06T18:26:38.349Z,99634.58
2022-10-06T18:29:05.795Z,99636.96
2022-10-06T18:31:32.599Z,99640.20
2022-10-06T18:36:46.773Z,99645.50
2022-10-06T18:39:13.484Z,99649.60
2022-10-06T18:41:41.004Z,99645.44
2022-10-06T18:44:08.413Z,99646.95
2022-10-06T18:46:54.098Z,99648.88
2022-10-06T18:49:22.438Z,99646.81
2022-10-06T18:51:57.945Z,99647.02
2022-10-06T18:54:31.973Z,99653.55
2022-10-06T18:56:58.499Z,99655.31
2022-10-06T18:59:31.379Z,99656.38
2022-10-06T19:02:00.561Z,99657.84
2022-10-06T19:04:27.305Z,99655.91
2022-10-06T19:06:54.619Z,99655.72
2022-10-06T19:09:23.461Z,99656.71
2022-10-06T19:11:58.034Z,99660.45
2022-10-06T19:14:31.005Z,99667.39
2022-10-06T19:16:59.698Z,99668.47
2022-10-06T19:19:27.276Z,99665.78
2022-10-06T19:22:01.488Z,99668.38
2022-10-06T19:24:41.490Z,99668.96
2022-10-06T19:27:13.574Z,99677.80
2022-10-06T19:29:44.153Z,99675.74
2022-10-06T19:32:10.658Z,99677.29
2022-10-06T19:34:37.525Z,99678.40
2022-10-06T19:37:04.777Z,99675.35
2022-10-06T19:39:32.152Z,99676.11
2022-10-06T19:42:17.544Z,99674.81
2022-10-06T19:44:44.658Z,99671.02
2022-10-06T19:47:13.088Z,99673.76
2022-10-06T19:49:39.662Z,99678.88
2022-10-06T19:52:08.237Z,99688.21
2022-10-06T19:54:35.229Z,99691.11
2022-10-06T19:57:05.454Z,99690.75
2022-10-06T19:59:32.805Z,99693.42
2022-10-06T20:01:59.287Z,99693.80
2022-10-06T20:04:26.487Z,99692.08
2022-10-06T20:06:53.090Z,99696.36
2022-10-06T20:09:21.861Z,99699.21
2022-10-06T20:11:49.679Z,99694.33
2022-10-06T20:14:21.312Z,99697.05
2022-10-06T20:16:49.293Z,99701.02
2022-10-06T20:19:16.668Z,99701.27
2022-10-06T20:21:43.259Z,99700.97
2022-10-06T20:24:22.958Z,99705.14
2022-10-06T20:26:50.740Z,99703.30
2022-10-06T20:29:22.907Z,99705.00
2022-10-06T20:31:54.200Z,99706.98
2022-10-06T20:34:22.359Z,99714.47
2022-10-06T20:36:53.230Z,99719.98
2022-10-06T20:39:41.199Z,99719.86
2022-10-06T20:42:12.238Z,99720.31
2022-10-06T20:44:42.045Z,99722.25
2022-10-06T20:47:09.599Z,99720.09
2022-10-06T20:49:36.309Z,99724.57
2022-10-06T20:52:03.472Z,99729.57
2022-10-06T20:54:35.950Z,99731.20
2022-10-06T20:57:04.154Z,99731.45
2022-10-06T20:59:30.670Z,99728.68
2022-10-06T21:01:59.911Z,99730.95
2022-10-06T21:04:30.104Z,99734.44
2022-10-06T21:06:57.247Z,99729.33
2022-10-06T21:09:24.697Z,99731.13
2022-10-06T21:11:51.338Z,99729.73
2022-10-06T21:14:18.310Z,99726.29
2022-10-06T21:16:45.718Z,99733.15
2022-10-06T21:19:16.738Z,99735.10
2022-10-06T21:21:45.734Z,99732.88
2022-10-06T21:24:12.464Z,99737.25
2022-10-06T21:26:39.189Z,99736.27
2022-10-06T21:29:05.686Z,99739.23
2022-10-06T21:31:33.521Z,99738.45
2022-10-06T21:34:01.364Z,99740.23
2022-10-06T21:36:29.214Z,99745.23
2022-10-06T21:38:57.244Z,99749.29
2022-10-06T21:41:40.463Z,99745.89
2022-10-06T21:44:08.884Z,99747.78
2022-10-06T21:46:51.225Z,99744.90
2022-10-06T21:49:19.428Z,99742.77
2022-10-06T21:51:47.193Z,99748.39
2022-10-06T21:54:13.973Z,99747.00
2022-10-06T21:56:40.750Z,99746.48
2022-10-06T21:59:07.488Z,99745.55
2022-10-06T22:01:39.124Z,99752.44
2022-10-06T22:04:06.513Z,99752.64
2022-10-06T22:06:34.413Z,99751.77
2022-10-06T22:09:01.025Z,99754.17
2022-10-06T22:11:29.180Z,99751.05
2022-10-06T22:13:57.340Z,99755.14
2022-10-06T22:16:25.525Z,99751.66
2022-10-06T22:18:52.597Z,99750.58
2022-10-06T22:21:30.249Z,99744.39
2022-10-06T22:24:01.424Z,99747.50
2022-10-06T22:26:28.658Z,99746.87
2022-10-06T22:28:56.072Z,99741.49
2022-10-06T22:31:26.035Z,99738.93
2022-10-06T22:33:54.668Z,99741.53
2022-10-06T22:36:21.149Z,99736.80
2022-10-06T22:38:47.860Z,99735.81
2022-10-06T22:41:14.423Z,99734.23
2022-10-06T22:43:40.938Z,99735.66
2022-10-06T22:46:07.913Z,99731.28
2022-10-06T22:48:34.494Z,99733.44
2022-10-06T22:51:01.100Z,99731.45
2022-10-06T22:53:30.439Z,99728.56
2022-10-06T22:55:57.744Z,99733.24
2022-10-06T22:58:24.678Z,99730.33
2022-10-06T23:00:51.338Z,99732.55
2022-10-06T23:03:18.224Z,99730.44
2022-10-06T23:05:58.194Z,99730.90
2022-10-06T23:08:25.092Z,99734.74
2022-10-06T23:10:51.940Z,99731.45
2022-10-06T23:13:18.639Z,99731.90
2022-10-06T23:15:45.179Z,99731.70
2022-10-06T23:18:11.821Z,99731.30
2022-10-06T23:20:38.638Z,99732.79
2022-10-06T23:23:05.229Z,99730.61
2022-10-06T23:25:31.971Z,99728.59
2022-10-06T23:27:58.825Z,99726.23
2022-10-06T23:30:25.667Z,99730.48
2022-10-06T23:32:52.187Z,99725.73
2022-10-06T23:35:18.967Z,99725.93
2022-10-06T23:37:45.838Z,99730.15
2022-10-06T23:40:12.828Z,99730.42
2022-10-06T23:42:39.572Z,99729.05
2022-10-06T23:45:07.711Z,99732.13
2022-10-06T23:47:34.275Z,99725.98
2022-10-06T23:50:01.146Z,99726.73
2022-10-06T23:52:27.721Z,99729.55
2022-10-06T23:54:54.147Z,99728.92
2022-10-06T23:57:20.899Z,99729.10
2022-10-06T23:59:47.692Z,99727.17
